Latest Weather Observations for kunanyi / Mount Wellington

IDT60801

Issued at 11:41 pm EDT Sunday 24 October 2021 (issued every 10 minutes, with the page automatically refreshed every 10 minutes)

About weather observations | Map of weather stations | Latest weather observations for TAS | Other Formats
Station Details ID: 094087 Name: KUNANYI (MOUNT WELLINGTON PINNACLE) Lat: -42.90 Lon: 147.24 Height: 1260.47 m
Data from the previous 72 hours. | See also: Recent months at kunanyi / Mount Wellington
Date/Time
EDT
Temp
°C
App
Temp
°C
Dew
Point
°C
Rel
Hum
%
Delta-T
°C
Wind Press
QNH
hPa
Press
MSL
hPa
Rain since
9am
mm
Dir  Spd
km/h
Gust
km/h
Spd
kts
Gust
kts
24/11:30pm -0.9 -9.7 -0.9 100 0.0 S 35 44 19 24 - - 3.4
24/11:00pm -1.1 -9.9 -1.1 100 0.0 S 35 43 19 23 - - 3.4
24/10:30pm -0.7 -9.8 -0.7 100 0.0 S 37 46 20 25 - - 3.4
24/10:00pm -0.6 -9.3 -0.6 100 0.0 S 35 44 19 24 - - 3.4
24/09:30pm -0.4 -9.1 -0.4 100 0.0 S 35 46 19 25 - - 2.4
24/09:00pm -0.5 -8.8 -0.5 100 0.0 S 33 44 18 24 - - 1.6
24/08:30pm -0.6 -9.7 -0.6 100 0.0 S 37 48 20 26 - - 1.0
24/08:00pm -0.5 -10.7 -0.5 100 0.0 S 43 52 23 28 - - 0.6
24/07:30pm -0.6 -11.4 -0.6 100 0.0 SSW 46 57 25 31 - - 0.4
24/07:00pm -0.5 -12.8 -0.5 100 0.0 SSW 54 63 29 34 - - 0.2
24/06:30pm -0.6 -13.5 -0.6 100 0.0 SSW 57 72 31 39 - - 0.2
24/06:00pm -0.7 -14.4 -0.7 100 0.0 SSW 61 80 33 43 - - 0.2
24/05:30pm -0.6 -14.6 -0.6 100 0.0 SSW 63 76 34 41 - - 0.2
24/05:00pm -0.7 -14.4 -0.7 100 0.0 SSW 61 72 33 39 - - 0.2
24/04:30pm 0.1 -12.5 0.1 100 0.0 SW 56 67 30 36 - - 0.2
24/04:06pm 0.2 -11.6 0.2 100 0.0 SSW 52 72 28 39 - - 0.2
24/04:00pm 0.5 -12.2 0.5 100 0.0 SSW 57 72 31 39 - - 0.2
24/03:33pm -0.3 -12.6 -0.3 100 0.0 SSW 54 74 29 40 - - 0.2
24/03:30pm 0.2 -12.0 0.2 100 0.0 SSW 54 69 29 37 - - 0.0
24/03:21pm -0.3 -11.4 -0.3 100 0.0 SSW 48 69 26 37 - - 0.0
24/03:00pm 0.1 -11.4 0.1 100 0.0 SSW 50 65 27 35 - - 0.0
24/02:30pm 0.3 -10.4 0.3 100 0.0 SSW 46 57 25 31 - - 0.0
24/02:00pm 0.1 -10.0 0.1 100 0.0 SSW 43 54 23 29 - - 0.0
24/01:30pm 0.0 -8.6 0.0 100 0.0 SSW 35 48 19 26 - - 0.0
24/01:00pm -0.3 -9.7 -0.3 100 0.0 SSW 39 50 21 27 - - 0.0
24/12:30pm -0.4 -10.8 -0.4 100 0.0 SSW 44 54 24 29 - - 0.0
24/12:00pm -0.5 -11.7 -0.5 100 0.0 SSW 48 59 26 32 - - 0.0
24/11:30am -1.1 -13.5 -1.1 100 0.0 SSW 54 61 29 33 - - 0.0
24/11:00am -1.1 -13.5 -1.1 100 0.0 SW 54 61 29 33 - - 0.0
24/10:30am -1.3 -13.7 -1.3 100 0.0 SSW 54 63 29 34 - - 0.0
24/10:00am -1.1 -13.9 -1.1 100 0.0 SW 56 65 30 35 - - 0.0
24/09:30am -0.8 -11.6 -0.8 100 0.0 SSW 46 57 25 31 - - 0.0
24/09:00am -0.6 -10.5 -0.6 100 0.0 SSW 41 54 22 29 - - 53.4
24/08:30am -0.4 -10.6 -0.4 100 0.0 SSW 43 63 23 34 - - 53.2
24/08:24am -0.5 -11.7 -0.5 100 0.0 SSW 48 67 26 36 - - 53.0
24/08:00am -0.3 -13.2 -0.3 100 0.0 SSW 57 70 31 38 - - 52.8
24/07:30am -0.1 -15.2 -0.1 100 0.0 SSW 69 87 37 47 - - 52.4
24/07:00am 0.0 -14.0 0.0 100 0.0 SSW 63 82 34 44 - - 51.6
24/06:30am 0.2 -13.3 0.2 100 0.0 SSW 61 83 33 45 - - 50.6
24/06:00am 0.4 -12.2 0.4 100 0.0 SSW 56 74 30 40 - - 49.8
24/05:35am 0.4 -12.7 0.4 100 0.0 SSW 59 83 32 45 - - 49.2
24/05:30am 0.4 -12.7 0.4 100 0.0 SSW 59 72 32 39 - - 49.2
24/05:00am 0.7 -13.1 0.7 100 0.0 SSW 63 82 34 44 - - 47.6
24/04:35am 0.9 -11.8 0.9 100 0.0 SSW 57 76 31 41 - - 46.0
24/04:30am 0.9 -11.8 0.9 100 0.0 SSW 57 74 31 40 - - 45.6
24/04:00am 1.0 -12.0 1.0 100 0.0 SSW 59 83 32 45 - - 43.2
24/03:30am 1.2 -10.5 1.2 100 0.0 SSW 52 74 28 40 - - 39.8
24/03:19am 1.7 -9.9 1.7 100 0.0 S 52 70 28 38 - - 38.4
24/03:00am 1.5 -10.9 1.5 100 0.0 S 56 72 30 39 - - 36.0
24/02:30am 2.0 -10.3 2.0 100 0.0 S 56 76 30 41 - - 33.6
24/02:00am 2.3 -7.7 2.3 100 0.0 S 44 65 24 35 - - 30.0
24/01:30am 2.4 -8.7 2.4 100 0.0 S 50 70 27 38 - - 27.0
24/01:17am 2.5 -8.6 2.5 100 0.0 S 50 69 27 37 - - 25.8
24/01:00am 2.4 -9.8 2.4 100 0.0 S 56 74 30 40 - - 24.8
24/12:34am 2.7 -9.1 2.7 100 0.0 S 54 72 29 39 - - 23.2
24/12:30am 2.7 -9.5 2.7 100 0.0 S 56 74 30 40 - - 23.2
24/12:02am 2.6 -9.6 2.6 100 0.0 S 56 74 30 40 - - 23.0
24/12:00am 2.6 -9.2 2.6 100 0.0 S 54 70 29 38 - - 23.0
 
Date/Time
EDT
Temp
°C
App
Temp
°C
Dew
Point
°C
Rel
Hum
%
Delta-T
°C
Wind Press
QNH
hPa
Press
MSL
hPa
Rain since
9am
mm
Dir  Spd
km/h
Gust
km/h
Spd
kts
Gust
kts
23/11:30pm 2.2 -10.1 2.2 100 0.0 S 56 80 30 43 - - 20.6
23/11:07pm 2.6 -9.8 2.6 100 0.0 S 57 76 31 41 - - 19.6
23/11:00pm 2.6 -9.2 2.6 100 0.0 S 54 72 29 39 - - 19.4
23/10:30pm 2.6 -9.2 2.6 100 0.0 S 54 72 29 39 - - 18.8
23/10:16pm 2.5 -9.0 2.5 100 0.0 S 52 72 28 39 - - 18.4
23/10:00pm 2.5 -8.2 2.5 100 0.0 S 48 61 26 33 - - 18.4
23/09:30pm 2.9 -6.4 2.9 100 0.0 SSW 41 61 22 33 - - 18.2
23/09:13pm 2.9 -6.4 2.9 100 0.0 SSW 41 61 22 33 - - 18.0
23/09:00pm 2.8 -6.1 2.8 100 0.0 S 39 54 21 29 - - 18.0
23/08:30pm 2.9 -7.0 2.9 100 0.0 SSW 44 61 24 33 - - 17.8
23/08:04pm 3.3 -3.5 3.3 100 0.0 SSW 28 46 15 25 - - 17.6
23/08:00pm 3.2 -4.0 3.2 100 0.0 SSW 30 44 16 24 - - 17.4
23/07:44pm 3.1 -5.4 3.1 100 0.0 SSW 37 56 20 30 - - 17.4
23/07:30pm 3.1 -4.5 3.1 100 0.0 SSW 32 41 17 22 - - 17.0
23/07:00pm 3.1 -4.1 3.1 100 0.0 SSW 30 41 16 22 - - 15.8
23/06:30pm 3.0 -6.3 3.0 100 0.0 SSW 41 56 22 30 - - 15.2
23/06:00pm 3.0 -6.3 3.0 100 0.0 SSW 41 52 22 28 - - 14.8
23/05:30pm 2.9 -3.2 2.9 100 0.0 SSW 24 39 13 21 - - 14.4
23/05:00pm 2.7 -4.6 2.7 100 0.0 SSW 30 43 16 23 - - 13.8
23/04:30pm 2.3 -6.0 2.3 100 0.0 SW 35 46 19 25 - - 12.8
23/04:00pm 2.5 -6.9 2.5 100 0.0 SSW 41 50 22 27 - - 8.6
23/03:30pm 2.0 -6.7 2.0 100 0.0 SW 37 44 20 24 - - 5.0
23/03:00pm 2.1 -6.2 2.1 100 0.0 SW 35 43 19 23 - - 3.6
23/02:30pm 2.3 -5.6 2.3 100 0.0 SW 33 39 18 21 - - 3.0
23/02:00pm 2.7 -4.2 2.7 100 0.0 SW 28 32 15 17 - - 2.6
23/01:30pm 3.0 -4.2 3.0 100 0.0 WSW 30 35 16 19 - - 2.6
23/01:00pm 2.4 -4.1 2.4 100 0.0 SW 26 30 14 16 - - 1.6
23/12:30pm 2.4 -5.3 2.4 100 0.0 WSW 32 35 17 19 - - 1.2
23/12:00pm 2.6 -4.7 2.6 100 0.0 WSW 30 37 16 20 - - 1.2
23/11:30am 3.0 -3.1 3.0 100 0.0 SW 24 30 13 16 - - 0.8
23/11:00am 2.9 -3.2 2.9 100 0.0 WSW 24 28 13 15 - - 0.8
23/10:30am 2.9 -3.2 2.9 100 0.0 WSW 24 28 13 15 - - 0.8
23/10:00am 5.0 1.4 5.0 100 0.0 SW 13 17 7 9 - - 0.8
23/09:30am 4.1 0.0 4.1 100 0.0 WSW 15 17 8 9 - - 0.2
23/09:00am 4.0 -0.5 4.0 100 0.0 WSW 17 20 9 11 - - 12.8
23/08:30am 4.9 1.3 4.9 100 0.0 WSW 13 17 7 9 - - 12.8
23/08:00am 4.5 1.2 4.5 100 0.0 WSW 11 15 6 8 - - 12.6
23/07:30am 4.5 1.2 4.5 100 0.0 WSW 11 15 6 8 - - 12.6
23/07:00am 4.8 1.5 4.8 100 0.0 WSW 11 13 6 7 - - 12.4
23/06:30am 5.4 4.4 5.4 100 0.0 CALM 0 0 0 0 - - 12.2
23/06:00am 5.1 3.2 5.1 100 0.0 WSW 4 6 2 3 - - 11.6
23/05:30am 5.2 3.4 5.2 100 0.0 W 4 7 2 4 - - 10.6
23/05:00am 6.4 4.4 6.4 100 0.0 ENE 6 9 3 5 - - 8.8
23/04:30am 6.1 4.4 6.1 100 0.0 NE 4 7 2 4 - - 8.2
23/04:00am 5.0 2.2 5.0 100 0.0 W 9 13 5 7 - - 7.8
23/03:30am 5.1 2.3 5.1 100 0.0 W 9 13 5 7 - - 6.0
23/03:00am 5.5 1.3 5.5 100 0.0 WNW 17 26 9 14 - - 4.8
23/02:30am 7.4 3.9 7.4 100 0.0 N 15 24 8 13 - - 2.8
23/02:00am 7.6 4.6 7.6 100 0.0 N 13 17 7 9 - - 1.2
23/01:30am 7.8 4.4 7.8 100 0.0 N 15 22 8 12 - - 0.4
23/01:00am 7.8 4.4 7.8 100 0.0 N 15 22 8 12 - - 0.2
23/12:30am 7.9 4.6 7.9 100 0.0 N 15 20 8 11 - - 0.2
23/12:00am 7.8 5.2 7.8 100 0.0 N 11 17 6 9 - - 0.2
 
Date/Time
EDT
Temp
°C
App
Temp
°C
Dew
Point
°C
Rel
Hum
%
Delta-T
°C
Wind Press
QNH
hPa
Press
MSL
hPa
Rain since
9am
mm
Dir  Spd
km/h
Gust
km/h
Spd
kts
Gust
kts
22/11:30pm 7.9 5.3 7.9 100 0.0 NNW 11 15 6 8 - - 0.2
22/11:00pm 7.9 4.6 7.9 100 0.0 NNW 15 22 8 12 - - 0.2
22/10:30pm 8.0 4.7 8.0 100 0.0 N 15 20 8 11 - - 0.2
22/10:00pm 8.1 4.1 8.1 100 0.0 NNW 19 24 10 13 - - 0.2
22/09:30pm 8.2 4.2 8.2 100 0.0 NNW 19 24 10 13 - - 0.2
22/09:00pm 8.3 5.8 8.3 100 0.0 N 11 17 6 9 - - 0.2
22/08:30pm 8.3 5.4 8.3 100 0.0 N 13 19 7 10 - - 0.2
22/08:00pm 8.3 5.4 8.3 100 0.0 N 13 19 7 10 - - 0.2
22/07:30pm 8.6 6.6 8.6 100 0.0 N 9 15 5 8 - - 0.2
22/07:00pm 8.9 7.0 8.9 100 0.0 NNW 9 15 5 8 - - 0.2
22/06:30pm 9.2 7.0 9.2 100 0.0 NNW 11 17 6 9 - - 0.2
22/06:00pm 9.5 6.2 9.5 100 0.0 NNW 17 22 9 12 - - 0.2
22/05:30pm 9.4 5.7 9.4 100 0.0 N 19 24 10 13 - - 0.2
22/05:00pm 9.5 4.5 9.5 100 0.0 N 26 35 14 19 - - 0.2
22/04:30pm 9.6 4.6 9.6 100 0.0 NNW 26 35 14 19 - - 0.2
22/04:00pm 10.7 5.2 10.7 100 0.0 NNW 30 39 16 21 - - 0.2
22/03:30pm 9.0 2.5 9.0 100 0.0 NNW 33 43 18 23 - - 0.2
22/03:00pm 8.5 1.9 8.5 100 0.0 N 33 46 18 25 - - 0.2
22/02:30pm 8.6 1.3 8.6 100 0.0 N 37 44 20 24 - - 0.2
22/02:00pm 8.6 0.9 8.6 100 0.0 N 39 48 21 26 - - 0.2
22/01:30pm 8.6 1.6 8.6 100 0.0 N 35 50 19 27 - - 0.2
22/01:00pm 8.7 1.8 8.7 100 0.0 N 35 48 19 26 - - 0.2
22/12:30pm 8.4 1.0 8.4 100 0.0 N 37 48 20 26 - - 0.2
22/12:00pm 8.3 -0.3 8.3 100 0.0 NNW 43 54 23 29 - - 0.2
22/11:30am 8.3 0.5 8.3 100 0.0 N 39 54 21 29 - - 0.2
22/11:00am 8.4 0.6 8.4 100 0.0 N 39 50 21 27 - - 0.2
22/10:30am 8.5 1.1 8.5 100 0.0 N 37 50 20 27 - - 0.2
22/10:00am 7.9 -0.4 7.9 100 0.0 NNW 41 50 22 27 - - 0.2
22/09:30am 7.8 0.6 7.8 100 0.0 N 35 46 19 25 - - 0.2
22/09:00am 7.7 -0.2 7.7 100 0.0 NNW 39 54 21 29 - - 1.0
22/08:30am 7.9 0.8 7.9 100 0.0 NNW 35 46 19 25 - - 1.0
22/08:00am 7.6 -1.3 7.6 100 0.0 NNW 44 56 24 30 - - 1.0
22/07:30am 7.3 -1.1 7.3 100 0.0 NNW 41 52 22 28 - - 1.0
22/07:00am 7.2 -0.9 7.2 100 0.0 N 39 46 21 25 - - 0.8
22/06:30am 7.3 -0.4 7.3 100 0.0 N 37 46 20 25 - - 0.6
22/06:00am 7.3 -0.7 7.3 100 0.0 NNW 39 48 21 26 - - 0.6
22/05:30am 7.2 -1.8 7.2 100 0.0 N 44 54 24 29 - - 0.6
22/05:00am 7.2 0.3 7.2 100 0.0 NNW 33 44 18 24 - - 0.4
22/04:30am 7.2 -0.9 7.2 100 0.0 NNW 39 54 21 29 - - 0.4
22/04:00am 7.3 0.0 7.3 100 0.0 NNW 35 46 19 25 - - 0.2
22/03:30am 7.4 -1.4 7.4 100 0.0 NNW 43 54 23 29 - - 0.2
22/03:00am 7.4 -1.4 7.4 100 0.0 N 43 56 23 30 - - 0.2
22/02:30am 7.5 -0.1 7.5 100 0.0 N 37 48 20 26 - - 0.0
22/02:00am 7.6 0.0 7.6 100 0.0 N 37 50 20 27 - - 0.0
22/01:30am 7.5 0.3 7.5 100 0.0 N 35 44 19 24 - - 0.0
22/01:00am 7.3 -0.4 7.3 100 0.0 NNW 37 44 20 24 - - 0.0
22/12:30am 7.1 -0.6 7.1 100 0.0 NNW 37 46 20 25 - - 0.0
22/12:00am 7.0 -0.7 7.0 100 0.0 NNW 37 44 20 24 - - 0.0

Other formats

Comma delimited format used in spreadsheet applications
http://www.bom.gov.au/fwo/IDT60801/IDT60801.95979.axf

JavaScript Object Notation format (JSON) in row-major order
http://www.bom.gov.au/fwo/IDT60801/IDT60801.95979.json

Data quality

Most of these data are generated automatically and are frequently updated. Quality checks on data are not normally performed. It is possible for incorrect values to appear. Refer to information at About Latest Weather Observations and please check the disclaimer before using these data.